Big Bear Station Historical Data
Daily Summary for October 7, 2017 Units:  English    Metric   Both
« Previous Day
Next Day »
Daily Weekly Monthly Yearly Custom
  High: Low: Average:
Temperature: 76.6 °F 33.8 °F 51.9 °F
Dew Point: 36.0 °F 15.8 °F 25.2 °F
Humidity: 81 % 13 % 44 %
Wind Speed: 7.8 mph 0.0 mph 1.1 mph
Wind Gust: -999.0 mph - -
Wind:- - WNW
Pressure: 30.24 in 30.09 in -
Precipitation: 0.00 in    
Historical Graphs
 
 
Tabular Data for October 7, 2017
Time Temperature Dew Point Pressure Wind Wind Speed Wind Gust Humidity Rainfall Rate (Hourly)
00:14 39.0 °F 25.0 °F 30.24 in Calm   -999.0 mph 57 % 0 in
00:29 38.8 °F 26.9 °F 30.24 in Calm   -999.0 mph 62 % 0 in
00:44 38.7 °F 27.2 °F 30.23 in Calm   -999.0 mph 63 % 0 in
00:59 38.3 °F 27.6 °F 30.23 in Calm   -999.0 mph 65 % 0 in
01:14 37.9 °F 27.6 °F 30.23 in Calm   -999.0 mph 66 % 0 in
01:30 37.6 °F 27.3 °F 30.23 in Calm   -999.0 mph 66 % 0 in
01:45 37.9 °F 27.6 °F 30.23 in Calm   -999.0 mph 66 % 0 in
02:00 37.2 °F 27.6 °F 30.23 in Calm   -999.0 mph 68 % 0 in
02:15 36.9 °F 27.3 °F 30.23 in Calm   -999.0 mph 68 % 0 in
02:46 36.5 °F 27.6 °F 30.22 in Calm   -999.0 mph 70 % 0 in
03:01 36.0 °F 27.2 °F 30.22 in Calm   -999.0 mph 70 % 0 in
03:16 36.5 °F 27.6 °F 30.21 in Calm   -999.0 mph 70 % 0 in
03:31 35.8 °F 26.3 °F 30.21 in Calm   -999.0 mph 68 % 0 in
03:46 36.1 °F 27.3 °F 30.21 in Calm   -999.0 mph 70 % 0 in
04:02 35.2 °F 27.7 °F 30.20 in Calm   -999.0 mph 74 % 0 in
04:17 35.2 °F 27.7 °F 30.20 in Calm   -999.0 mph 74 % 0 in
04:32 35.2 °F 27.7 °F 30.20 in Calm   -999.0 mph 74 % 0 in
04:47 35.1 °F 27.3 °F 30.20 in Calm   -999.0 mph 73 % 0 in
05:03 34.7 °F 26.6 °F 30.20 in Calm   -999.0 mph 72 % 0 in
05:18 34.9 °F 27.1 °F 30.20 in Calm   -999.0 mph 73 % 0 in
05:48 34.7 °F 28.5 °F 30.20 in Calm   -999.0 mph 78 % 0 in
06:03 34.7 °F 29.2 °F 30.20 in Calm   -999.0 mph 80 % 0 in
06:19 34.0 °F 28.2 °F 30.20 in Calm   -999.0 mph 79 % 0 in
06:34 34.0 °F 28.5 °F 30.19 in Calm   -999.0 mph 80 % 0 in
06:49 33.8 °F 28.3 °F 30.19 in Calm   -999.0 mph 80 % 0 in
07:04 34.0 °F 28.5 °F 30.19 in Calm   -999.0 mph 80 % 0 in
07:19 34.0 °F 28.5 °F 30.19 in Calm   -999.0 mph 80 % 0 in
07:35 34.3 °F 28.8 °F 30.19 in Calm   -999.0 mph 80 % 0 in
07:50 34.3 °F 29.1 °F 30.19 in Calm   -999.0 mph 81 % 0 in
08:05 35.2 °F 29.3 °F 30.19 in Calm   -999.0 mph 79 % 0 in
08:20 36.7 °F 29.8 °F 30.20 in Calm   -999.0 mph 76 % 0 in
08:35 38.1 °F 30.2 °F 30.20 in Calm   -999.0 mph 73 % 0 in
08:51 39.0 °F 33.0 °F 30.20 in Calm   -999.0 mph 79 % 0 in
09:06 40.5 °F 33.2 °F 30.20 in Calm   -999.0 mph 75 % 0 in
09:21 42.1 °F 31.9 °F 30.19 in Calm   -999.0 mph 67 % 0 in
09:36 44.6 °F 33.2 °F 30.19 in Calm   -999.0 mph 64 % 0 in
09:52 48.0 °F 31.7 °F 30.19 in Calm   -999.0 mph 53 % 0 in
10:07 51.6 °F 36.0 °F 30.19 in Calm   -999.0 mph 55 % 0 in
10:23 54.9 °F 35.6 °F 30.19 in NW 1.7 mph -999.0 mph 48 % 0 in
10:38 64.2 °F 26.6 °F 30.18 in NNW 2.2 mph -999.0 mph 24 % 0 in
10:53 68.7 °F 20.7 °F 30.18 in WNW 2.2 mph -999.0 mph 16 % 0 in
11:08 70.3 °F 20.4 °F 30.18 in ESE 1.7 mph -999.0 mph 15 % 0 in
11:23 72.0 °F 20.2 °F 30.18 in North 3.7 mph -999.0 mph 14 % 0 in
11:39 72.3 °F 22.0 °F 30.18 in North 2.7 mph -999.0 mph 15 % 0 in
11:54 73.4 °F 25.9 °F 30.18 in NNW 3.2 mph -999.0 mph 17 % 0 in
12:09 74.3 °F 26.7 °F 30.18 in NNW 4.7 mph -999.0 mph 17 % 0 in
12:24 75.0 °F 25.8 °F 30.17 in NNW 4.2 mph -999.0 mph 16 % 0 in
12:39 75.4 °F 26.1 °F 30.17 in NW 4.7 mph -999.0 mph 16 % 0 in
12:55 75.4 °F 22.9 °F 30.16 in West 4.2 mph -999.0 mph 14 % 0 in
13:10 75.7 °F 21.4 °F 30.15 in WNW 5.3 mph -999.0 mph 13 % 0 in
13:25 76.1 °F 21.7 °F 30.15 in NNW 4.2 mph -999.0 mph 13 % 0 in
13:41 75.9 °F 21.5 °F 30.15 in SSW 5.3 mph -999.0 mph 13 % 0 in
13:56 76.6 °F 27.0 °F 30.14 in NW 4.2 mph -999.0 mph 16 % 0 in
14:11 74.1 °F 27.9 °F 30.14 in NW 4.7 mph -999.0 mph 18 % 0 in
14:26 73.4 °F 22.9 °F 30.14 in NW 4.7 mph -999.0 mph 15 % 0 in
14:41 74.7 °F 22.3 °F 30.14 in NNW 4.7 mph -999.0 mph 14 % 0 in
14:57 73.9 °F 21.7 °F 30.13 in NW 3.7 mph -999.0 mph 14 % 0 in
15:12 72.9 °F 24.1 °F 30.13 in WNW 3.7 mph -999.0 mph 16 % 0 in
15:28 72.9 °F 22.5 °F 30.13 in WNW 1.7 mph -999.0 mph 15 % 0 in
15:43 72.5 °F 20.6 °F 30.13 in NW 7.8 mph -999.0 mph 14 % 0 in
15:58 73.2 °F 21.1 °F 30.13 in West 2.2 mph -999.0 mph 14 % 0 in
16:13 71.6 °F 24.5 °F 30.12 in NW 5.3 mph -999.0 mph 17 % 0 in
16:28 70.5 °F 23.6 °F 30.13 in Calm   -999.0 mph 17 % 0 in
16:44 69.8 °F 23.0 °F 30.12 in WNW 2.2 mph -999.0 mph 17 % 0 in
16:59 69.1 °F 23.8 °F 30.12 in Calm   -999.0 mph 18 % 0 in
17:14 68.4 °F 18.9 °F 30.12 in Calm   -999.0 mph 15 % 0 in
17:30 66.6 °F 26.6 °F 30.12 in NW 2.7 mph -999.0 mph 22 % 0 in
17:45 65.1 °F 25.3 °F 30.12 in Calm   -999.0 mph 22 % 0 in
18:00 63.7 °F 25.2 °F 30.12 in Calm   -999.0 mph 23 % 0 in
18:15 61.9 °F 22.6 °F 30.11 in Calm   -999.0 mph 22 % 0 in
18:30 59.9 °F 22.0 °F 30.11 in Calm   -999.0 mph 23 % 0 in
19:01 57.2 °F 20.7 °F 30.11 in Calm   -999.0 mph 24 % 0 in
19:16 55.8 °F 19.5 °F 30.11 in Calm   -999.0 mph 24 % 0 in
19:31 54.7 °F 19.5 °F 30.11 in Calm   -999.0 mph 25 % 0 in
19:47 52.9 °F 18.9 °F 30.11 in Calm   -999.0 mph 26 % 0 in
20:02 51.8 °F 18.0 °F 30.11 in Calm   -999.0 mph 26 % 0 in
20:17 50.5 °F 20.2 °F 30.11 in Calm   -999.0 mph 30 % 0 in
20:32 49.5 °F 22.3 °F 30.11 in Calm   -999.0 mph 34 % 0 in
20:47 48.7 °F 19.4 °F 30.11 in Calm   -999.0 mph 31 % 0 in
21:03 48.0 °F 20.9 °F 30.11 in Calm   -999.0 mph 34 % 0 in
21:18 47.3 °F 25.9 °F 30.11 in Calm   -999.0 mph 43 % 0 in
21:33 46.9 °F 26.1 °F 30.10 in Calm   -999.0 mph 44 % 0 in
21:48 45.7 °F 26.6 °F 30.10 in Calm   -999.0 mph 47 % 0 in
22:03 45.3 °F 24.7 °F 30.10 in Calm   -999.0 mph 44 % 0 in
22:19 45.0 °F 22.7 °F 30.11 in Calm   -999.0 mph 41 % 0 in
22:34 45.1 °F 22.2 °F 30.10 in Calm   -999.0 mph 40 % 0 in
22:49 43.9 °F 23.4 °F 30.09 in Calm   -999.0 mph 44 % 0 in
23:04 44.4 °F 21.6 °F 30.09 in Calm   -999.0 mph 40 % 0 in
23:19 43.7 °F 16.5 °F 30.09 in Calm   -999.0 mph 33 % 0 in
23:35 45.5 °F 15.8 °F 30.09 in South 1.7 mph -999.0 mph 30 % 0 in
23:50 47.7 °F 16.2 °F 30.09 in South 2.7 mph -999.0 mph 28 % 0 in
Big Bear CA Weather
Compliments of Weather Underground - 1.5 mb